AIC14K VCBI-VOBL
Flight info
| Callsign | AIC14K |
|---|---|
| Flight time | 1h 3m |
| Altitude | 40000 |
| Route | ATETA1D ATETA T4 TTR W42 ADKAL ADKAL7F |
| Aircraft | A359/H-SDE2E3GHIJ3J4J5LM1ORWXY/LB1D1 |
Departure
| Time | 2026-05-05 09:34 |
|---|---|
| Airport | Bandaranaike International Colombo Airport (VCBI) |
Arrival
| Time | 2026-05-05 10:37 |
|---|---|
| Airport | Kempegowda International Airport Bengaluru (VOBL) |
| Time | Latitude | Longitude | Altitude | Speed | Heading |
|---|---|---|---|---|---|
| 2026-05-05 09:15 | 7.17296 | 79.88368 | 38 ft | 0 kts | 36° |
| 2026-05-05 09:26 | 7.17293 | 79.88366 | 38 ft | 0 kts | 36° |
| 2026-05-05 09:27 | 7.17278 | 79.88355 | 39 ft | 2 kts | 36° |
| 2026-05-05 09:27 | 7.17265 | 79.88345 | 38 ft | 2 kts | 36° |
| 2026-05-05 09:27 | 7.17252 | 79.88335 | 35 ft | 2 kts | 39° |
| 2026-05-05 09:27 | 7.17239 | 79.88325 | 37 ft | 2 kts | 35° |
| 2026-05-05 09:28 | 7.17225 | 79.88318 | 35 ft | 2 kts | 7° |
| 2026-05-05 09:28 | 7.17209 | 79.88320 | 36 ft | 2 kts | 313° |
| 2026-05-05 09:28 | 7.17208 | 79.88321 | 37 ft | 0 kts | 313° |
| 2026-05-05 09:29 | 7.17211 | 79.88318 | 36 ft | 3 kts | 313° |
| 2026-05-05 09:30 | 7.17248 | 79.88278 | 39 ft | 12 kts | 313° |
| 2026-05-05 09:30 | 7.17317 | 79.88193 | 40 ft | 18 kts | 305° |
| 2026-05-05 09:30 | 7.17414 | 79.88093 | 40 ft | 21 kts | 1° |
| 2026-05-05 09:30 | 7.17556 | 79.88181 | 40 ft | 27 kts | 37° |
| 2026-05-05 09:31 | 7.17723 | 79.88305 | 40 ft | 32 kts | 36° |
| 2026-05-05 09:31 | 7.17912 | 79.88451 | 41 ft | 28 kts | 39° |
| 2026-05-05 09:31 | 7.18037 | 79.88553 | 40 ft | 26 kts | 39° |
| 2026-05-05 09:31 | 7.18194 | 79.88681 | 41 ft | 32 kts | 39° |
| 2026-05-05 09:32 | 7.18314 | 79.88778 | 41 ft | 35 kts | 39° |
| 2026-05-05 09:32 | 7.18516 | 79.88932 | 42 ft | 35 kts | 37° |
| 2026-05-05 09:32 | 7.18722 | 79.89088 | 42 ft | 39 kts | 37° |
| 2026-05-05 09:32 | 7.18964 | 79.89265 | 42 ft | 20 kts | 35° |
| 2026-05-05 09:33 | 7.19092 | 79.89359 | 42 ft | 26 kts | 37° |
| 2026-05-05 09:33 | 7.19203 | 79.89410 | 42 ft | 25 kts | 351° |
| 2026-05-05 09:33 | 7.19280 | 79.89305 | 41 ft | 22 kts | 276° |
| 2026-05-05 09:33 | 7.19157 | 79.89180 | 42 ft | 47 kts | 218° |
| 2026-05-05 09:34 | 7.18665 | 79.88802 | 43 ft | 128 kts | 217° |
| 2026-05-05 09:34 | 7.17794 | 79.88130 | 325 ft | 173 kts | 218° |
| 2026-05-05 09:34 | 7.16989 | 79.87234 | 1171 ft | 172 kts | 249° |
| 2026-05-05 09:34 | 7.17023 | 79.86024 | 1803 ft | 183 kts | 292° |
| 2026-05-05 09:35 | 7.17959 | 79.85121 | 1980 ft | 204 kts | 335° |
| 2026-05-05 09:35 | 7.20989 | 79.85644 | 2225 ft | 244 kts | 5° |
| 2026-05-05 09:35 | 7.22695 | 79.85862 | 2625 ft | 248 kts | 11° |
| 2026-05-05 09:36 | 7.24318 | 79.86462 | 3066 ft | 251 kts | 24° |
| 2026-05-05 09:36 | 7.26029 | 79.86880 | 3198 ft | 260 kts | 357° |
| 2026-05-05 09:36 | 7.27858 | 79.86708 | 3632 ft | 269 kts | 353° |
| 2026-05-05 09:36 | 7.29708 | 79.86986 | 4403 ft | 274 kts | 21° |
| 2026-05-05 09:37 | 7.31361 | 79.87973 | 5157 ft | 277 kts | 33° |
| 2026-05-05 09:37 | 7.32919 | 79.89139 | 5849 ft | 282 kts | 36° |
| 2026-05-05 09:37 | 7.34494 | 79.90346 | 6504 ft | 285 kts | 34° |
| 2026-05-05 09:37 | 7.36243 | 79.91210 | 7183 ft | 284 kts | 14° |
| 2026-05-05 09:38 | 7.38203 | 79.91460 | 7894 ft | 284 kts | 2° |
| 2026-05-05 09:38 | 7.40190 | 79.91519 | 8563 ft | 287 kts | 0° |
| 2026-05-05 09:38 | 7.42200 | 79.91551 | 9211 ft | 290 kts | 1° |
| 2026-05-05 09:38 | 7.44229 | 79.91588 | 9861 ft | 293 kts | 1° |
| 2026-05-05 09:39 | 7.46297 | 79.91634 | 10301 ft | 304 kts | 1° |
| 2026-05-05 09:39 | 7.48471 | 79.91690 | 10515 ft | 321 kts | 1° |
| 2026-05-05 09:39 | 7.50759 | 79.91745 | 10783 ft | 334 kts | 1° |
| 2026-05-05 09:39 | 7.53109 | 79.91804 | 11226 ft | 341 kts | 1° |
| 2026-05-05 09:40 | 7.55506 | 79.91866 | 11668 ft | 347 kts | 2° |
| 2026-05-05 09:40 | 7.57943 | 79.91930 | 12130 ft | 353 kts | 2° |
| 2026-05-05 09:40 | 7.60409 | 79.91995 | 12673 ft | 355 kts | 2° |
| 2026-05-05 09:40 | 7.62898 | 79.92061 | 13174 ft | 359 kts | 2° |
| 2026-05-05 09:41 | 7.65414 | 79.92133 | 13637 ft | 364 kts | 2° |
| 2026-05-05 09:41 | 7.67955 | 79.92201 | 14114 ft | 366 kts | 2° |
| 2026-05-05 09:41 | 7.70478 | 79.92268 | 14586 ft | 368 kts | 2° |
| 2026-05-05 09:41 | 7.73050 | 79.92336 | 15054 ft | 371 kts | 2° |
| 2026-05-05 09:42 | 7.75643 | 79.92406 | 15528 ft | 373 kts | 2° |
| 2026-05-05 09:42 | 7.78249 | 79.92477 | 16030 ft | 375 kts | 2° |
| 2026-05-05 09:42 | 7.80872 | 79.92548 | 16492 ft | 378 kts | 2° |
| 2026-05-05 09:42 | 7.83509 | 79.92619 | 16948 ft | 381 kts | 2° |
| 2026-05-05 09:43 | 7.86168 | 79.92602 | 17426 ft | 383 kts | 356° |
| 2026-05-05 09:43 | 7.88818 | 79.92235 | 17869 ft | 386 kts | 350° |
| 2026-05-05 09:43 | 7.91473 | 79.91731 | 18254 ft | 390 kts | 349° |
| 2026-05-05 09:43 | 7.94141 | 79.91206 | 18658 ft | 392 kts | 349° |
| 2026-05-05 09:44 | 7.96819 | 79.90680 | 19062 ft | 393 kts | 349° |
| 2026-05-05 09:44 | 7.99515 | 79.90154 | 19436 ft | 396 kts | 349° |
| 2026-05-05 09:44 | 8.02232 | 79.89627 | 19784 ft | 399 kts | 349° |
| 2026-05-05 09:44 | 8.04963 | 79.89098 | 20165 ft | 401 kts | 348° |
| 2026-05-05 09:45 | 8.07707 | 79.88567 | 20602 ft | 401 kts | 348° |
| 2026-05-05 09:45 | 8.10462 | 79.88034 | 20949 ft | 404 kts | 348° |
| 2026-05-05 09:45 | 8.13229 | 79.87500 | 21283 ft | 407 kts | 348° |
| 2026-05-05 09:45 | 8.16018 | 79.86961 | 21655 ft | 409 kts | 348° |
| 2026-05-05 09:46 | 8.18814 | 79.86423 | 22046 ft | 410 kts | 348° |
| 2026-05-05 09:46 | 8.21624 | 79.85890 | 22370 ft | 412 kts | 348° |
| 2026-05-05 09:46 | 8.24418 | 79.85358 | 22685 ft | 415 kts | 348° |
| 2026-05-05 09:46 | 8.27262 | 79.84816 | 23073 ft | 416 kts | 348° |
| 2026-05-05 09:47 | 8.30101 | 79.84276 | 23454 ft | 417 kts | 348° |
| 2026-05-05 09:47 | 8.32962 | 79.83731 | 23706 ft | 419 kts | 348° |
| 2026-05-05 09:47 | 8.35843 | 79.83183 | 23948 ft | 422 kts | 348° |
| 2026-05-05 09:47 | 8.38734 | 79.82632 | 24278 ft | 422 kts | 348° |
| 2026-05-05 09:48 | 8.41629 | 79.82082 | 24613 ft | 423 kts | 348° |
| 2026-05-05 09:48 | 8.44530 | 79.81529 | 24878 ft | 426 kts | 348° |
| 2026-05-05 09:48 | 8.47448 | 79.80973 | 25155 ft | 428 kts | 348° |
| 2026-05-05 09:48 | 8.50377 | 79.80415 | 25483 ft | 428 kts | 348° |
| 2026-05-05 09:49 | 8.53310 | 79.79856 | 25803 ft | 430 kts | 348° |
| 2026-05-05 09:49 | 8.56259 | 79.79295 | 26078 ft | 432 kts | 348° |
| 2026-05-05 09:49 | 8.59221 | 79.78730 | 26364 ft | 434 kts | 348° |
| 2026-05-05 09:49 | 8.62170 | 79.78168 | 26611 ft | 438 kts | 348° |
| 2026-05-05 09:50 | 8.65173 | 79.77595 | 26904 ft | 440 kts | 348° |
| 2026-05-05 09:50 | 8.68193 | 79.77020 | 27183 ft | 443 kts | 348° |
| 2026-05-05 09:50 | 8.71224 | 79.76442 | 27525 ft | 444 kts | 348° |
| 2026-05-05 09:50 | 8.74259 | 79.75863 | 27891 ft | 444 kts | 348° |
| 2026-05-05 09:51 | 8.77315 | 79.75280 | 28184 ft | 447 kts | 348° |
| 2026-05-05 09:51 | 8.80386 | 79.74694 | 28447 ft | 451 kts | 348° |
| 2026-05-05 09:51 | 8.83469 | 79.74105 | 28788 ft | 452 kts | 348° |
| 2026-05-05 09:51 | 8.86563 | 79.73515 | 29164 ft | 453 kts | 348° |
| 2026-05-05 09:52 | 8.89670 | 79.72922 | 29450 ft | 456 kts | 348° |
| 2026-05-05 09:52 | 8.92799 | 79.72325 | 29786 ft | 458 kts | 348° |
| 2026-05-05 09:52 | 8.95902 | 79.71732 | 30089 ft | 460 kts | 348° |
| 2026-05-05 09:52 | 8.99057 | 79.71129 | 30334 ft | 464 kts | 348° |
| 2026-05-05 09:53 | 9.02243 | 79.70521 | 30611 ft | 466 kts | 348° |
| 2026-05-05 09:53 | 9.05442 | 79.69910 | 30947 ft | 468 kts | 348° |
| 2026-05-05 09:53 | 9.08640 | 79.69298 | 31332 ft | 468 kts | 348° |
| 2026-05-05 09:53 | 9.11851 | 79.68685 | 31678 ft | 469 kts | 348° |
| 2026-05-05 09:54 | 9.15071 | 79.68070 | 32013 ft | 471 kts | 348° |
| 2026-05-05 09:54 | 9.18261 | 79.67460 | 32380 ft | 472 kts | 348° |
| 2026-05-05 09:54 | 9.21502 | 79.66840 | 32740 ft | 473 kts | 348° |
| 2026-05-05 09:54 | 9.24750 | 79.66219 | 33076 ft | 475 kts | 348° |
| 2026-05-05 09:55 | 9.28005 | 79.65590 | 33420 ft | 476 kts | 348° |
| 2026-05-05 09:55 | 9.31201 | 79.64709 | 33870 ft | 474 kts | 340° |
| 2026-05-05 09:55 | 9.34201 | 79.63337 | 34288 ft | 472 kts | 330° |
| 2026-05-05 09:55 | 9.37047 | 79.61685 | 34683 ft | 472 kts | 328° |
| 2026-05-05 09:56 | 9.39813 | 79.59963 | 35033 ft | 473 kts | 327° |
| 2026-05-05 09:56 | 9.42595 | 79.58175 | 35401 ft | 473 kts | 327° |
| 2026-05-05 09:56 | 9.45364 | 79.56378 | 35787 ft | 473 kts | 327° |
| 2026-05-05 09:56 | 9.48139 | 79.54581 | 36154 ft | 474 kts | 328° |
| 2026-05-05 09:57 | 9.50928 | 79.52787 | 36586 ft | 474 kts | 328° |
| 2026-05-05 09:57 | 9.53711 | 79.51008 | 37048 ft | 472 kts | 328° |
| 2026-05-05 09:57 | 9.56493 | 79.49238 | 37473 ft | 472 kts | 329° |
| 2026-05-05 09:57 | 9.59276 | 79.47471 | 37889 ft | 472 kts | 329° |
| 2026-05-05 09:58 | 9.62060 | 79.45706 | 38298 ft | 472 kts | 329° |
| 2026-05-05 09:58 | 9.64845 | 79.43940 | 38670 ft | 472 kts | 329° |
| 2026-05-05 09:58 | 9.67629 | 79.42174 | 39024 ft | 471 kts | 329° |
| 2026-05-05 09:58 | 9.70397 | 79.40417 | 39466 ft | 468 kts | 329° |
| 2026-05-05 09:59 | 9.73155 | 79.38667 | 39750 ft | 467 kts | 329° |
| 2026-05-05 09:59 | 9.75847 | 79.36956 | 39786 ft | 458 kts | 329° |
| 2026-05-05 09:59 | 9.81205 | 79.33551 | 39789 ft | 453 kts | 329° |
| 2026-05-05 10:00 | 9.86539 | 79.30162 | 39788 ft | 452 kts | 329° |
| 2026-05-05 10:00 | 9.91879 | 79.26768 | 39786 ft | 453 kts | 329° |
| 2026-05-05 10:01 | 9.97218 | 79.23373 | 39785 ft | 453 kts | 329° |
| 2026-05-05 10:01 | 10.02553 | 79.19979 | 39786 ft | 453 kts | 329° |
| 2026-05-05 10:02 | 10.07677 | 79.16718 | 39783 ft | 454 kts | 329° |
| 2026-05-05 10:02 | 10.13075 | 79.13282 | 39779 ft | 469 kts | 329° |
| 2026-05-05 10:03 | 10.18693 | 79.09705 | 39778 ft | 481 kts | 329° |
| 2026-05-05 10:03 | 10.24368 | 79.06087 | 39783 ft | 481 kts | 329° |
| 2026-05-05 10:04 | 10.30031 | 79.02475 | 39781 ft | 479 kts | 328° |
| 2026-05-05 10:04 | 10.35665 | 78.98881 | 39783 ft | 478 kts | 328° |
| 2026-05-05 10:05 | 10.41296 | 78.95288 | 39782 ft | 478 kts | 328° |
| 2026-05-05 10:05 | 10.46919 | 78.91698 | 39783 ft | 477 kts | 328° |
| 2026-05-05 10:06 | 10.52501 | 78.88133 | 39779 ft | 477 kts | 328° |
| 2026-05-05 10:06 | 10.58117 | 78.84546 | 39780 ft | 477 kts | 328° |
| 2026-05-05 10:07 | 10.63733 | 78.80956 | 39782 ft | 477 kts | 328° |
| 2026-05-05 10:07 | 10.69356 | 78.77360 | 39780 ft | 477 kts | 328° |
| 2026-05-05 10:08 | 10.74950 | 78.73787 | 39768 ft | 477 kts | 329° |
| 2026-05-05 10:08 | 10.80960 | 78.70901 | 39773 ft | 479 kts | 338° |
| 2026-05-05 10:09 | 10.87132 | 78.68339 | 39778 ft | 479 kts | 339° |
| 2026-05-05 10:09 | 10.93320 | 78.65791 | 39776 ft | 479 kts | 339° |
| 2026-05-05 10:10 | 10.99474 | 78.63259 | 39782 ft | 479 kts | 339° |
| 2026-05-05 10:10 | 11.05656 | 78.60715 | 39784 ft | 479 kts | 339° |
| 2026-05-05 10:11 | 11.11843 | 78.58168 | 39795 ft | 479 kts | 338° |
| 2026-05-05 10:11 | 11.18042 | 78.55615 | 39795 ft | 481 kts | 338° |
| 2026-05-05 10:12 | 11.24246 | 78.53059 | 39796 ft | 481 kts | 338° |
| 2026-05-05 10:12 | 11.30462 | 78.50497 | 39795 ft | 481 kts | 338° |
| 2026-05-05 10:13 | 11.36671 | 78.47937 | 39798 ft | 481 kts | 338° |
| 2026-05-05 10:13 | 11.42880 | 78.45375 | 39804 ft | 481 kts | 338° |
| 2026-05-05 10:14 | 11.49069 | 78.42820 | 39665 ft | 472 kts | 338° |
| 2026-05-05 10:14 | 11.52090 | 78.41573 | 39371 ft | 465 kts | 338° |
| 2026-05-05 10:14 | 11.55078 | 78.40339 | 38907 ft | 463 kts | 338° |
| 2026-05-05 10:15 | 11.58024 | 78.39121 | 38352 ft | 463 kts | 338° |
| 2026-05-05 10:15 | 11.61010 | 78.37888 | 37673 ft | 464 kts | 338° |
| 2026-05-05 10:15 | 11.64007 | 78.36649 | 36976 ft | 465 kts | 338° |
| 2026-05-05 10:15 | 11.67006 | 78.35409 | 36308 ft | 466 kts | 338° |
| 2026-05-05 10:16 | 11.70011 | 78.34167 | 35673 ft | 466 kts | 338° |
| 2026-05-05 10:16 | 11.73021 | 78.32922 | 35053 ft | 466 kts | 338° |
| 2026-05-05 10:16 | 11.76023 | 78.31680 | 34408 ft | 467 kts | 338° |
| 2026-05-05 10:16 | 11.79031 | 78.30436 | 33771 ft | 467 kts | 338° |
| 2026-05-05 10:17 | 11.82045 | 78.29188 | 33043 ft | 467 kts | 338° |
| 2026-05-05 10:17 | 11.85062 | 78.27939 | 32322 ft | 468 kts | 337° |
| 2026-05-05 10:17 | 11.88089 | 78.26708 | 31649 ft | 468 kts | 338° |
| 2026-05-05 10:17 | 11.91112 | 78.25499 | 31076 ft | 466 kts | 338° |
| 2026-05-05 10:18 | 11.94130 | 78.24292 | 30502 ft | 464 kts | 338° |
| 2026-05-05 10:18 | 11.96117 | 78.23497 | 30120 ft | 463 kts | 338° |
| 2026-05-05 10:18 | 11.99108 | 78.22298 | 29536 ft | 460 kts | 338° |
| 2026-05-05 10:18 | 12.02082 | 78.21104 | 28970 ft | 456 kts | 338° |
| 2026-05-05 10:19 | 12.05975 | 78.19540 | 28237 ft | 451 kts | 337° |
| 2026-05-05 10:19 | 12.08884 | 78.18371 | 27675 ft | 448 kts | 337° |
| 2026-05-05 10:19 | 12.11769 | 78.17211 | 27135 ft | 444 kts | 337° |
| 2026-05-05 10:19 | 12.13707 | 78.16431 | 26770 ft | 442 kts | 337° |
| 2026-05-05 10:20 | 12.16554 | 78.15286 | 26268 ft | 437 kts | 338° |
| 2026-05-05 10:20 | 12.19343 | 78.14164 | 25793 ft | 433 kts | 337° |
| 2026-05-05 10:20 | 12.22133 | 78.13041 | 25276 ft | 430 kts | 337° |
| 2026-05-05 10:20 | 12.24902 | 78.11926 | 24758 ft | 427 kts | 337° |
| 2026-05-05 10:21 | 12.27659 | 78.10816 | 24238 ft | 424 kts | 337° |
| 2026-05-05 10:21 | 12.30394 | 78.09714 | 23751 ft | 421 kts | 337° |
| 2026-05-05 10:21 | 12.33111 | 78.08619 | 23199 ft | 418 kts | 337° |
| 2026-05-05 10:21 | 12.35813 | 78.07530 | 22620 ft | 415 kts | 337° |
| 2026-05-05 10:22 | 12.38482 | 78.06455 | 22087 ft | 411 kts | 337° |
| 2026-05-05 10:22 | 12.41129 | 78.05388 | 21539 ft | 407 kts | 337° |
| 2026-05-05 10:22 | 12.43752 | 78.04330 | 21020 ft | 403 kts | 337° |
| 2026-05-05 10:22 | 12.46347 | 78.03283 | 20478 ft | 399 kts | 337° |
| 2026-05-05 10:23 | 12.48889 | 78.02258 | 19978 ft | 395 kts | 337° |
| 2026-05-05 10:23 | 12.51447 | 78.01226 | 19494 ft | 392 kts | 337° |
| 2026-05-05 10:23 | 12.53971 | 78.00207 | 19052 ft | 388 kts | 337° |
| 2026-05-05 10:23 | 12.56480 | 77.99195 | 18574 ft | 385 kts | 337° |
| 2026-05-05 10:24 | 12.58960 | 77.98194 | 18078 ft | 381 kts | 337° |
| 2026-05-05 10:24 | 12.61416 | 77.97202 | 17504 ft | 378 kts | 337° |
| 2026-05-05 10:24 | 12.63854 | 77.96216 | 16943 ft | 374 kts | 337° |
| 2026-05-05 10:24 | 12.66266 | 77.95241 | 16444 ft | 371 kts | 337° |
| 2026-05-05 10:25 | 12.68660 | 77.94273 | 15925 ft | 368 kts | 337° |
| 2026-05-05 10:25 | 12.71002 | 77.93326 | 15703 ft | 356 kts | 338° |
| 2026-05-05 10:25 | 12.73299 | 77.92474 | 15387 ft | 347 kts | 343° |
| 2026-05-05 10:25 | 12.75662 | 77.92069 | 14627 ft | 354 kts | 359° |
| 2026-05-05 10:26 | 12.78116 | 77.92293 | 14061 ft | 353 kts | 9° |
| 2026-05-05 10:26 | 12.80517 | 77.92725 | 13593 ft | 348 kts | 11° |
| 2026-05-05 10:26 | 12.82889 | 77.93193 | 13042 ft | 344 kts | 12° |
| 2026-05-05 10:26 | 12.85223 | 77.93662 | 12473 ft | 341 kts | 12° |
| 2026-05-05 10:27 | 12.87542 | 77.94129 | 11896 ft | 338 kts | 12° |
| 2026-05-05 10:27 | 12.89830 | 77.94592 | 11509 ft | 330 kts | 12° |
| 2026-05-05 10:27 | 12.92041 | 77.95038 | 11290 ft | 316 kts | 12° |
| 2026-05-05 10:27 | 12.94155 | 77.95465 | 11115 ft | 303 kts | 12° |
| 2026-05-05 10:28 | 12.96195 | 77.95877 | 10806 ft | 296 kts | 12° |
| 2026-05-05 10:28 | 12.98196 | 77.96282 | 10428 ft | 292 kts | 12° |
| 2026-05-05 10:28 | 13.00174 | 77.96682 | 10050 ft | 288 kts | 12° |
| 2026-05-05 10:28 | 13.02108 | 77.97073 | 9851 ft | 277 kts | 12° |
| 2026-05-05 10:29 | 13.03963 | 77.97449 | 9705 ft | 266 kts | 12° |
| 2026-05-05 10:29 | 13.05737 | 77.97808 | 9556 ft | 254 kts | 11° |
| 2026-05-05 10:29 | 13.07420 | 77.98148 | 9425 ft | 244 kts | 12° |
| 2026-05-05 10:29 | 13.09046 | 77.98477 | 9294 ft | 233 kts | 12° |
| 2026-05-05 10:30 | 13.10603 | 77.98801 | 9167 ft | 223 kts | 12° |
| 2026-05-05 10:30 | 13.12093 | 77.99108 | 9047 ft | 214 kts | 12° |
| 2026-05-05 10:30 | 13.13529 | 77.99404 | 8834 ft | 209 kts | 12° |
| 2026-05-05 10:30 | 13.14950 | 77.99697 | 8550 ft | 207 kts | 12° |
| 2026-05-05 10:31 | 13.16366 | 77.99990 | 8277 ft | 207 kts | 11° |
| 2026-05-05 10:31 | 13.17799 | 77.99944 | 7952 ft | 210 kts | 342° |
| 2026-05-05 10:31 | 13.18979 | 77.99094 | 7663 ft | 211 kts | 311° |
| 2026-05-05 10:31 | 13.19758 | 77.97821 | 7408 ft | 210 kts | 300° |
| 2026-05-05 10:32 | 13.20372 | 77.96453 | 7137 ft | 212 kts | 290° |
| 2026-05-05 10:32 | 13.20632 | 77.94964 | 6888 ft | 213 kts | 275° |
| 2026-05-05 10:32 | 13.20646 | 77.93455 | 6665 ft | 210 kts | 271° |
| 2026-05-05 10:32 | 13.20635 | 77.91975 | 6516 ft | 203 kts | 272° |
| 2026-05-05 10:33 | 13.20637 | 77.90554 | 6362 ft | 195 kts | 272° |
| 2026-05-05 10:33 | 13.20647 | 77.89191 | 6076 ft | 192 kts | 272° |
| 2026-05-05 10:33 | 13.20653 | 77.87828 | 5807 ft | 189 kts | 272° |
| 2026-05-05 10:33 | 13.20656 | 77.86488 | 5559 ft | 185 kts | 272° |
| 2026-05-05 10:34 | 13.20661 | 77.85182 | 5318 ft | 181 kts | 272° |
| 2026-05-05 10:34 | 13.20665 | 77.83910 | 5110 ft | 175 kts | 272° |
| 2026-05-05 10:34 | 13.20669 | 77.82667 | 4897 ft | 174 kts | 272° |
| 2026-05-05 10:34 | 13.20675 | 77.81418 | 4676 ft | 176 kts | 272° |
| 2026-05-05 10:35 | 13.20678 | 77.80165 | 4477 ft | 176 kts | 273° |
| 2026-05-05 10:35 | 13.20683 | 77.78905 | 4253 ft | 175 kts | 273° |
| 2026-05-05 10:35 | 13.20687 | 77.77663 | 4031 ft | 171 kts | 272° |
| 2026-05-05 10:35 | 13.20690 | 77.76485 | 3819 ft | 159 kts | 272° |
| 2026-05-05 10:36 | 13.20693 | 77.75405 | 3625 ft | 149 kts | 273° |
| 2026-05-05 10:36 | 13.20697 | 77.74367 | 3423 ft | 141 kts | 273° |
| 2026-05-05 10:36 | 13.20701 | 77.73389 | 3222 ft | 133 kts | 271° |
| 2026-05-05 10:36 | 13.20702 | 77.72454 | 3042 ft | 131 kts | 273° |
| 2026-05-05 10:37 | 13.20685 | 77.71532 | 2948 ft | 127 kts | 273° |
| 2026-05-05 10:37 | 13.20699 | 77.70815 | 2962 ft | 62 kts | 271° |
| 2026-05-05 10:37 | 13.20701 | 77.70575 | 2968 ft | 27 kts | 268° |
| 2026-05-05 10:37 | 13.20642 | 77.70413 | 2971 ft | 23 kts | 265° |
| 2026-05-05 10:38 | 13.20586 | 77.70272 | 2975 ft | 12 kts | 216° |
| 2026-05-05 10:38 | 13.20544 | 77.70282 | 2975 ft | 5 kts | 115° |
| 2026-05-05 10:38 | 13.20531 | 77.70362 | 2973 ft | 17 kts | 96° |
| 2026-05-05 10:38 | 13.20530 | 77.70522 | 2969 ft | 27 kts | 89° |
| 2026-05-05 10:39 | 13.20528 | 77.70726 | 2953 ft | 31 kts | 91° |
| 2026-05-05 10:39 | 13.20526 | 77.70974 | 2958 ft | 31 kts | 90° |
| 2026-05-05 10:39 | 13.20524 | 77.71179 | 2950 ft | 31 kts | 91° |
| 2026-05-05 10:39 | 13.20522 | 77.71355 | 2943 ft | 17 kts | 90° |
| 2026-05-05 10:40 | 13.20521 | 77.71506 | 2939 ft | 25 kts | 90° |
| 2026-05-05 10:40 | 13.20519 | 77.71705 | 2935 ft | 31 kts | 90° |
| 2026-05-05 10:40 | 13.20516 | 77.71944 | 2929 ft | 36 kts | 90° |
| 2026-05-05 10:40 | 13.20515 | 77.72041 | 2927 ft | 3 kts | 91° |
| 2026-05-05 10:41 | 13.20499 | 77.72091 | 2928 ft | 10 kts | 134° |
| 2026-05-05 10:41 | 13.20409 | 77.72112 | 2931 ft | 17 kts | 175° |
| 2026-05-05 10:41 | 13.20302 | 77.72111 | 2928 ft | 17 kts | 181° |
| 2026-05-05 10:41 | 13.20159 | 77.72109 | 2929 ft | 24 kts | 181° |
| 2026-05-05 10:42 | 13.20017 | 77.72104 | 2931 ft | 7 kts | 186° |
| 2026-05-05 10:42 | 13.19962 | 77.72096 | 2933 ft | 8 kts | 218° |
| 2026-05-05 10:42 | 13.19947 | 77.72040 | 2932 ft | 10 kts | 265° |
| 2026-05-05 10:43 | 13.19940 | 77.72015 | 2930 ft | 0 kts | 255° |